Αρχική σελίδα
METAR-TAF:

METAR-TAF

Αεροδρόμια :

Πλατφόρμα πετρελαίου

Statfjord B, Νορβηγία

γεωγραφικό πλάτος: 61-12-22N, γεωγραφικό μήκος: 1-49-45E, υψόμετρο: 10 μ

Παρών καιρός

Η αναφορά έγινε 31 λεπτά πριν, στις 07:20 UTC
Άνεμος 10 kt από BA
Θερμοκρασία 13°C
Υγρασία 100%
Πίεση 1004 hPa
Ορατότητα: 0100 μ
Ασθενής βροχή, ομίχλη,

METAR: ENFB 150720Z AUTO 04010KT 0100 -RA FG VV250 13/13 Q1004 W///S4

Χρόνος: 09:51 (07:51 UTC)


TAF: λείπει

Μετεωρολογικές αναφορές και προγνώσεις για περισσότερα από 4000 αεροδρόμια (δελτία METAR και TAF).

Οι διαθέσιμοι σταθμοί απεικονίζονται στο χάρτη με κίτρινες και κόκκινες κουκκίδες.

Μετακινήστε το ποντίκι πάνω από τις κουκκίδες για να δείτε το όνομα του σταθμού.

Στη συνέχεια, κάντε κλικ για να δείτε τις μετεωρολογικές αναφορές και τις προγνώσεις καιρού.

Για να αλλάξετε το χάρτη: κάντε κλικ στα πράσινα κουμπιά με τον μαύρο σταυρό για να ζουμάρετε, στο πράσινο κουμπί με την παύλα για να αφαιρέσετε το ζουμ ή στα πράσινα βέλη για να αντιπαραβάλλετε χάρτες.


METAR-TAF: